Gould, Arkansas
Current Conditions -  °F | °C
As of 12:53 PM on Friday 31 Oct 2014 (Local Time) from KPBF Reporting Station
Clear Clear  
Wind Chill: 62°   Ceiling: Unl
Heat Index: 62°   Visibility: 10mi
Dew Point: 41°   Wind: 20mph
Humidity: 46%   Direction: 350°N
Pressure: 30.19"   Gusts: NA
Location:  33.99°N, 91.56°W
Report Text: KPBF 311753Z AUTO 35017KT 10SM CLR 17/05 A3019 RMK AO2 SLP223 T01670050 10167 20111 50008
Loading
Personal Weather Stations






























Interactive Weather Map New forecast layout! Learn more

10-Day Weather Forecast

Advertisements
Track Severe Weather on mobile